Terminal Aerodrome Forecast
Issued by NWS

Home | Current Version | Previous Version | Text Only | Print | Product List | Glossary On
Versions: 1 2 3 4 5 6 7 8 9 10 11 12 13 14 15 16 17 18 19
000
FTUS43 KLSX 280022 AAA
TAFSUS
TAF AMD
KSUS 280022Z 2800/2824 13010G20KT P6SM VCTS BKN040CB
     FM280200 14006KT P6SM SCT040 BKN120
     FM280900 VRB04KT 4SM BR BKN020
     FM281400 27007KT P6SM SCT030 BKN120=

USA.gov is the U.S. government's official web portal to all federal, state and local government web resources and services.